createdAt,value
2019-06-07T00:00:38.865Z,99693.47
2019-06-07T00:02:44.171Z,99692.03
2019-06-07T00:05:17.989Z,99699.75
2019-06-07T00:07:43.754Z,99705.36
2019-06-07T00:10:31.259Z,99703.14
2019-06-07T00:12:43.180Z,99701.39
2019-06-07T00:15:16.405Z,99702.16
2019-06-07T00:17:42.600Z,99697.56
2019-06-07T00:20:15.572Z,99691.95
2019-06-07T00:22:43.770Z,99693.27
2019-06-07T00:25:15.900Z,99696.89
2019-06-07T00:27:43.337Z,99699.88
2019-06-07T00:30:36.235Z,99693.49
2019-06-07T00:32:44.219Z,99692.62
2019-06-07T00:35:15.461Z,99691.29
2019-06-07T00:37:43.626Z,99688.02
2019-06-07T00:40:18.584Z,99691.73
2019-06-07T00:42:42.977Z,99698.78
2019-06-07T00:45:14.042Z,99701.22
2019-06-07T00:47:43.057Z,99697.69
2019-06-07T00:50:13.746Z,99698.44
2019-06-07T00:53:14.125Z,99700.53
2019-06-07T00:55:15.544Z,99712.33
2019-06-07T00:57:44.355Z,99712.44
2019-06-07T01:00:14.956Z,99709.91
2019-06-07T01:02:44.067Z,99710.69
2019-06-07T01:05:15.923Z,99711.98
2019-06-07T01:07:43.340Z,99703.63
2019-06-07T01:10:16.547Z,99709.67
2019-06-07T01:12:44.966Z,99706.80
2019-06-07T01:15:17.314Z,99705.36
2019-06-07T01:18:32.593Z,99702.95
2019-06-07T01:20:16.759Z,99705.26
2019-06-07T01:22:46.063Z,99706.37
2019-06-07T01:25:15.750Z,99707.58
2019-06-07T01:27:44.734Z,99705.59
2019-06-07T01:30:16.412Z,99705.13
2019-06-07T01:32:45.175Z,99702.43
2019-06-07T01:35:13.994Z,99696.61
2019-06-07T01:37:42.724Z,99699.80
2019-06-07T01:40:12.012Z,99700.94
2019-06-07T01:42:40.737Z,99710.17
2019-06-07T01:45:10.466Z,99713.93
2019-06-07T01:47:39.390Z,99710.69
2019-06-07T01:50:11.687Z,99711.09
2019-06-07T01:52:40.416Z,99710.08
2019-06-07T01:55:09.698Z,99712.51
2019-06-07T01:57:47.963Z,99713.39
2019-06-07T02:00:12.092Z,99716.43
2019-06-07T02:02:40.980Z,99718.86
2019-06-07T02:05:10.300Z,99719.16
2019-06-07T02:07:39.024Z,99719.16
2019-06-07T02:10:08.886Z,99716.86
2019-06-07T02:12:43.324Z,99714.56
2019-06-07T02:15:09.466Z,99715.09
2019-06-07T02:17:38.927Z,99712.02
2019-06-07T02:20:08.351Z,99707.19
2019-06-07T02:22:37.129Z,99712.22
2019-06-07T02:25:35.277Z,99712.89
2019-06-07T02:27:37.654Z,99709.91
2019-06-07T02:30:37.155Z,99715.30
2019-06-07T02:32:39.126Z,99710.80
2019-06-07T02:35:08.384Z,99712.22
2019-06-07T02:37:37.659Z,99719.27
2019-06-07T02:40:08.577Z,99721.46
2019-06-07T02:42:41.856Z,99731.36
2019-06-07T02:45:10.649Z,99742.22
2019-06-07T02:47:40.300Z,99737.81
2019-06-07T02:50:11.740Z,99735.08
2019-06-07T02:52:41.495Z,99742.11
2019-06-07T02:55:12.238Z,99750.89
2019-06-07T02:57:42.500Z,99753.09
2019-06-07T03:00:41.229Z,99753.88
2019-06-07T03:02:46.027Z,99757.06
2019-06-07T03:05:14.870Z,99758.82
2019-06-07T03:07:45.903Z,99766.40
2019-06-07T03:10:15.071Z,99775.97
2019-06-07T03:12:45.545Z,99776.50
2019-06-07T03:15:32.281Z,99776.20
2019-06-07T03:17:52.556Z,99776.95
2019-06-07T03:20:29.946Z,99786.66
2019-06-07T03:23:01.803Z,99784.81
2019-06-07T03:25:37.342Z,99782.17
2019-06-07T03:28:08.143Z,99779.98
2019-06-07T03:30:52.763Z,99781.84
2019-06-07T03:33:07.490Z,99785.16
2019-06-07T03:35:37.512Z,99786.59
2019-06-07T03:38:06.464Z,99790.55
2019-06-07T03:40:39.628Z,99799.78
2019-06-07T03:43:05.720Z,99801.45
2019-06-07T03:45:36.020Z,99803.36
2019-06-07T03:48:04.898Z,99811.08
2019-06-07T03:50:36.666Z,99809.33
2019-06-07T03:53:04.256Z,99810.92
2019-06-07T03:55:35.694Z,99806.42
2019-06-07T04:00:37.357Z,99811.01
2019-06-07T04:03:04.801Z,99807.62
2019-06-07T04:05:40.268Z,99808.30
2019-06-07T04:08:04.164Z,99797.66
2019-06-07T04:10:52.048Z,99796.78
2019-06-07T04:13:03.993Z,99792.69
2019-06-07T04:15:36.052Z,99793.58
2019-06-07T04:18:04.148Z,99796.36
2019-06-07T04:20:35.781Z,99791.62
2019-06-07T04:23:03.488Z,99796.36
2019-06-07T04:25:37.056Z,99796.69
2019-06-07T04:28:03.721Z,99804.50
2019-06-07T04:30:42.985Z,99803.16
2019-06-07T04:33:13.550Z,99802.73
2019-06-07T04:35:43.533Z,99806.92
2019-06-07T04:38:13.376Z,99816.40
2019-06-07T04:40:43.391Z,99813.28
2019-06-07T04:43:12.813Z,99805.66
2019-06-07T04:45:50.047Z,99809.95
2019-06-07T04:48:12.229Z,99811.45
2019-06-07T04:50:43.671Z,99807.91
2019-06-07T04:53:11.399Z,99809.27
2019-06-07T04:55:41.812Z,99818.16
2019-06-07T04:58:12.091Z,99813.54
2019-06-07T05:00:53.186Z,99825.85
2019-06-07T05:03:14.430Z,99826.89
2019-06-07T05:05:43.926Z,99832.83
2019-06-07T05:08:27.586Z,99831.27
2019-06-07T05:10:44.049Z,99832.39
2019-06-07T05:13:13.003Z,99836.76
2019-06-07T05:15:42.303Z,99838.58
2019-06-07T05:18:11.262Z,99842.95
2019-06-07T05:20:41.525Z,99844.92
2019-06-07T05:23:10.432Z,99843.38
2019-06-07T05:25:43.053Z,99843.89
2019-06-07T05:28:09.766Z,99848.70
2019-06-07T05:33:11.300Z,99849.25
2019-06-07T05:35:43.302Z,99848.44
2019-06-07T05:38:10.659Z,99845.86
2019-06-07T05:40:43.843Z,99847.63
2019-06-07T05:43:23.386Z,99854.20
2019-06-07T05:45:52.393Z,99853.14
2019-06-07T05:48:21.305Z,99848.19
2019-06-07T05:50:56.864Z,99851.16
2019-06-07T05:53:20.802Z,99863.55
2019-06-07T05:55:49.526Z,99867.70
2019-06-07T05:58:18.568Z,99857.44
2019-06-07T06:00:47.997Z,99856.37
2019-06-07T06:03:16.810Z,99858.98
2019-06-07T06:05:53.885Z,99855.02
2019-06-07T06:08:16.163Z,99862.14
2019-06-07T06:10:48.461Z,99856.94
2019-06-07T06:13:15.529Z,99859.31
2019-06-07T06:15:55.940Z,99862.08
2019-06-07T06:18:14.732Z,99863.02
2019-06-07T06:21:05.039Z,99871.27
2019-06-07T06:23:14.049Z,99871.39
2019-06-07T06:25:50.830Z,99875.86
2019-06-07T06:28:15.752Z,99867.44
2019-06-07T06:30:47.366Z,99881.09
2019-06-07T06:33:30.494Z,99880.39
2019-06-07T06:35:48.430Z,99872.22
2019-06-07T06:38:15.322Z,99872.70
2019-06-07T06:40:48.397Z,99872.70
2019-06-07T06:43:14.579Z,99870.28
2019-06-07T06:45:46.913Z,99878.98
2019-06-07T06:48:13.911Z,99875.23
2019-06-07T06:50:44.393Z,99876.86
2019-06-07T06:53:13.291Z,99875.90
2019-06-07T06:55:43.800Z,99876.83
2019-06-07T06:58:12.441Z,99884.63
2019-06-07T07:00:53.765Z,99875.74
2019-06-07T07:03:56.407Z,99873.07
2019-06-07T07:05:50.049Z,99875.56
2019-06-07T07:08:17.066Z,99884.77
2019-06-07T07:10:52.087Z,99883.72
2019-06-07T07:13:17.489Z,99893.42
2019-06-07T07:15:50.122Z,99891.23
2019-06-07T07:18:16.682Z,99896.83
2019-06-07T07:20:47.716Z,99897.30
2019-06-07T07:23:17.406Z,99897.19
2019-06-07T07:25:52.743Z,99900.47
2019-06-07T07:28:16.708Z,99905.88
2019-06-07T07:30:56.372Z,99902.15
2019-06-07T07:33:24.857Z,99900.86
2019-06-07T07:36:15.965Z,99899.59
2019-06-07T07:38:24.094Z,99903.88
2019-06-07T07:41:07.725Z,99908.89
2019-06-07T07:43:24.550Z,99905.80
2019-06-07T07:45:59.178Z,99912.44
2019-06-07T07:48:23.849Z,99910.58
2019-06-07T07:50:56.937Z,99912.16
2019-06-07T07:53:23.064Z,99916.44
2019-06-07T07:55:56.626Z,99908.69
2019-06-07T07:58:22.751Z,99910.97
2019-06-07T08:01:04.681Z,99914.58
2019-06-07T08:03:22.252Z,99911.79
2019-06-07T08:05:52.006Z,99909.77
2019-06-07T08:08:21.458Z,99915.42
2019-06-07T08:10:53.718Z,99912.71
2019-06-07T08:13:25.458Z,99905.62
2019-06-07T08:15:54.484Z,99907.80
2019-06-07T08:18:21.763Z,99909.43
2019-06-07T08:21:11.708Z,99908.43
2019-06-07T08:23:21.056Z,99906.25
2019-06-07T08:25:51.883Z,99907.78
2019-06-07T08:28:20.246Z,99915.27
2019-06-07T08:30:55.179Z,99910.92
2019-06-07T08:33:27.122Z,99914.44
2019-06-07T08:36:10.324Z,99917.33
2019-06-07T08:38:27.270Z,99918.58
2019-06-07T08:40:56.862Z,99921.22
2019-06-07T08:43:21.522Z,99915.72
2019-06-07T08:45:55.943Z,99914.16
2019-06-07T08:48:28.058Z,99917.84
2019-06-07T08:50:54.301Z,99914.22
2019-06-07T08:53:22.286Z,99917.28
2019-06-07T08:55:52.410Z,99915.41
2019-06-07T08:58:21.491Z,99916.91
2019-06-07T09:00:51.435Z,99910.84
2019-06-07T09:03:20.806Z,99909.52
2019-06-07T09:05:49.548Z,99914.22
2019-06-07T09:08:29.880Z,99914.23
2019-06-07T09:10:48.757Z,99917.72
2019-06-07T09:13:17.475Z,99914.16
2019-06-07T09:15:46.372Z,99913.62
2019-06-07T09:18:42.302Z,99914.91
2019-06-07T09:20:47.608Z,99909.23
2019-06-07T09:23:17.787Z,99906.09
2019-06-07T09:25:57.262Z,99903.65
2019-06-07T09:28:20.259Z,99905.48
2019-06-07T09:30:48.354Z,99904.69
2019-06-07T09:33:17.099Z,99903.82
2019-06-07T09:35:45.814Z,99901.23
2019-06-07T09:38:24.750Z,99904.58
2019-06-07T09:40:45.190Z,99910.50
2019-06-07T09:45:45.215Z,99911.06
2019-06-07T09:48:23.976Z,99917.75
2019-06-07T09:50:44.421Z,99911.45
2019-06-07T09:53:21.886Z,99913.27
2019-06-07T09:55:43.603Z,99906.84
2019-06-07T10:00:43.178Z,99908.80
2019-06-07T10:03:20.153Z,99902.75
2019-06-07T10:05:42.414Z,99900.39
2019-06-07T10:08:41.424Z,99894.42
2019-06-07T10:10:43.080Z,99889.84
2019-06-07T10:13:12.233Z,99891.03
2019-06-07T10:15:41.791Z,99887.64
2019-06-07T10:18:10.525Z,99889.06
2019-06-07T10:20:39.246Z,99885.36
2019-06-07T10:23:08.262Z,99879.09
2019-06-07T10:25:37.055Z,99880.58
2019-06-07T10:28:06.322Z,99877.97
2019-06-07T10:30:35.511Z,99885.14
2019-06-07T10:33:04.878Z,99880.94
2019-06-07T10:35:34.261Z,99877.72
2019-06-07T10:38:04.636Z,99879.02
2019-06-07T10:40:33.593Z,99876.53
2019-06-07T10:43:02.965Z,99881.38
2019-06-07T10:45:31.976Z,99874.25
2019-06-07T10:48:01.513Z,99877.28
2019-06-07T10:50:31.608Z,99870.63
2019-06-07T10:53:00.394Z,99873.27
2019-06-07T10:55:29.112Z,99872.44
2019-06-07T10:57:59.445Z,99867.33
2019-06-07T11:00:28.611Z,99864.05
2019-06-07T11:02:57.447Z,99864.53
2019-06-07T11:05:26.169Z,99859.15
2019-06-07T11:07:54.936Z,99863.59
2019-06-07T11:10:23.889Z,99859.52
2019-06-07T11:12:52.605Z,99855.39
2019-06-07T11:15:21.489Z,99857.17
2019-06-07T11:17:50.214Z,99854.46
2019-06-07T11:20:19.344Z,99849.91
2019-06-07T11:22:48.481Z,99853.41
2019-06-07T11:25:18.653Z,99849.59
2019-06-07T11:27:47.605Z,99849.88
2019-06-07T11:30:16.456Z,99849.11
2019-06-07T11:32:45.192Z,99850.19
2019-06-07T11:35:15.777Z,99842.13
2019-06-07T11:37:44.755Z,99838.84
2019-06-07T11:40:32.113Z,99840.48
2019-06-07T11:42:44.515Z,99834.92
2019-06-07T11:45:15.339Z,99830.57
2019-06-07T11:47:43.871Z,99830.12
2019-06-07T11:50:13.737Z,99820.86
2019-06-07T11:52:46.126Z,99825.28
2019-06-07T11:55:13.924Z,99817.87
2019-06-07T11:57:43.681Z,99813.71
2019-06-07T12:00:18.242Z,99801.27
2019-06-07T12:02:45.945Z,99798.19
2019-06-07T12:05:18.110Z,99796.68
2019-06-07T12:07:45.774Z,99796.84
2019-06-07T12:10:18.148Z,99790.57
2019-06-07T12:12:45.147Z,99795.61
2019-06-07T12:15:15.076Z,99785.25
2019-06-07T12:17:43.896Z,99787.22
2019-06-07T12:20:14.742Z,99787.27
2019-06-07T12:22:43.722Z,99786.19
2019-06-07T12:25:15.025Z,99777.87
2019-06-07T12:27:42.991Z,99779.05
2019-06-07T12:30:20.307Z,99777.68
2019-06-07T12:32:42.494Z,99776.64
2019-06-07T12:35:11.549Z,99773.36
2019-06-07T12:37:44.353Z,99771.84
2019-06-07T12:40:15.897Z,99770.34
2019-06-07T12:42:41.686Z,99760.80
2019-06-07T12:45:10.903Z,99755.83
2019-06-07T12:47:39.666Z,99756.61
2019-06-07T12:50:09.332Z,99760.65
2019-06-07T12:52:38.191Z,99754.42
2019-06-07T12:55:08.771Z,99761.65
2019-06-07T12:57:37.511Z,99756.41
2019-06-07T13:00:14.180Z,99758.57
2019-06-07T13:02:43.098Z,99756.06
2019-06-07T13:05:12.006Z,99748.63
2019-06-07T13:07:40.867Z,99743.44
2019-06-07T13:10:10.383Z,99739.36
2019-06-07T13:12:39.349Z,99736.16
2019-06-07T13:15:08.779Z,99736.32
2019-06-07T13:17:37.892Z,99735.94
2019-06-07T13:20:08.314Z,99744.06
2019-06-07T13:22:37.285Z,99741.73
2019-06-07T13:25:07.219Z,99743.45
2019-06-07T13:27:36.028Z,99739.81
2019-06-07T13:30:10.310Z,99735.44
2019-06-07T13:32:38.012Z,99734.11
2019-06-07T13:35:08.591Z,99730.62
2019-06-07T13:37:37.352Z,99722.51
2019-06-07T13:40:07.172Z,99722.27
2019-06-07T13:42:35.890Z,99725.80
2019-06-07T13:45:07.272Z,99722.98
2019-06-07T13:47:36.033Z,99724.09
2019-06-07T13:50:08.089Z,99726.39
2019-06-07T13:52:37.603Z,99721.36
2019-06-07T13:55:07.386Z,99724.88
2019-06-07T13:57:36.108Z,99725.85
2019-06-07T14:00:11.455Z,99728.51
2019-06-07T14:02:40.313Z,99728.10
2019-06-07T14:05:09.430Z,99720.61
2019-06-07T14:07:38.382Z,99723.02
2019-06-07T14:10:11.547Z,99719.89
2019-06-07T14:12:40.804Z,99722.53
2019-06-07T14:15:11.393Z,99718.50
2019-06-07T14:17:40.110Z,99713.80
2019-06-07T14:20:10.330Z,99714.76
2019-06-07T14:22:39.609Z,99707.48
2019-06-07T14:25:10.095Z,99709.73
2019-06-07T14:27:38.820Z,99708.65
2019-06-07T14:30:11.399Z,99706.53
2019-06-07T14:32:40.184Z,99703.95
2019-06-07T14:35:09.725Z,99707.69
2019-06-07T14:37:38.590Z,99700.77
2019-06-07T14:40:09.613Z,99702.31
2019-06-07T14:42:38.347Z,99699.25
2019-06-07T14:45:09.106Z,99705.66
2019-06-07T14:47:37.826Z,99708.02
2019-06-07T14:50:09.786Z,99704.02
2019-06-07T14:52:38.657Z,99699.66
2019-06-07T14:55:08.565Z,99698.73
2019-06-07T14:57:38.493Z,99701.22
2019-06-07T15:00:12.333Z,99693.06
2019-06-07T15:02:41.169Z,99700.97
2019-06-07T15:05:10.609Z,99700.52
2019-06-07T15:07:40.929Z,99698.64
2019-06-07T15:10:11.164Z,99698.19
2019-06-07T15:12:40.258Z,99691.70
2019-06-07T15:15:09.759Z,99690.55
2019-06-07T15:17:39.219Z,99684.05
2019-06-07T15:20:08.272Z,99683.73
2019-06-07T15:22:38.802Z,99685.52
2019-06-07T15:25:08.076Z,99682.80
2019-06-07T15:27:37.745Z,99684.34
2019-06-07T15:30:10.630Z,99677.71
2019-06-07T15:32:39.820Z,99678.38
2019-06-07T15:35:09.001Z,99684.70
2019-06-07T15:37:39.269Z,99679.41
2019-06-07T15:40:10.194Z,99677.61
2019-06-07T15:42:51.375Z,99681.98
2019-06-07T15:45:10.338Z,99682.28
2019-06-07T15:47:40.649Z,99682.72
2019-06-07T15:50:10.598Z,99686.66
2019-06-07T15:52:42.610Z,99686.95
2019-06-07T15:55:12.728Z,99686.80
2019-06-07T15:57:42.160Z,99685.44
2019-06-07T16:00:19.755Z,99685.82
2019-06-07T16:02:48.844Z,99693.03
2019-06-07T16:05:17.664Z,99692.53
2019-06-07T16:07:46.533Z,99690.65
2019-06-07T16:10:15.549Z,99696.30
2019-06-07T16:12:59.183Z,99694.09
2019-06-07T16:15:15.564Z,99690.80
2019-06-07T16:17:44.286Z,99693.59
2019-06-07T16:20:13.714Z,99697.09
2019-06-07T16:22:43.991Z,99687.59
2019-06-07T16:25:13.187Z,99688.96
2019-06-07T16:27:42.758Z,99697.75
2019-06-07T16:30:12.943Z,99695.32
2019-06-07T16:32:42.326Z,99696.81
2019-06-07T16:35:14.915Z,99694.72
2019-06-07T16:37:45.837Z,99687.28
2019-06-07T16:40:15.141Z,99683.13
2019-06-07T16:42:45.043Z,99679.52
2019-06-07T16:45:14.914Z,99693.48
2019-06-07T16:47:47.455Z,99693.02
2019-06-07T16:50:14.467Z,99689.82
2019-06-07T16:52:44.221Z,99687.16
2019-06-07T16:55:15.330Z,99688.00
2019-06-07T16:57:45.177Z,99684.81
2019-06-07T17:00:15.915Z,99682.79
2019-06-07T17:02:45.114Z,99684.58
2019-06-07T17:05:16.173Z,99678.47
2019-06-07T17:07:46.703Z,99676.94
2019-06-07T17:10:15.705Z,99680.02
2019-06-07T17:12:44.941Z,99682.58
2019-06-07T17:15:15.797Z,99679.77
2019-06-07T17:17:45.123Z,99682.53
2019-06-07T17:20:14.399Z,99676.70
2019-06-07T17:22:43.986Z,99676.95
2019-06-07T17:25:14.633Z,99678.20
2019-06-07T17:27:43.880Z,99682.58
2019-06-07T17:30:13.504Z,99685.50
2019-06-07T17:32:50.548Z,99683.80
2019-06-07T17:35:12.967Z,99684.47
2019-06-07T17:37:43.685Z,99681.45
2019-06-07T17:40:13.013Z,99674.37
2019-06-07T17:42:42.751Z,99679.59
2019-06-07T17:45:12.653Z,99683.11
2019-06-07T17:47:41.771Z,99684.61
2019-06-07T17:50:11.201Z,99677.77
2019-06-07T17:52:39.939Z,99679.21
2019-06-07T17:55:09.162Z,99682.80
2019-06-07T17:57:38.014Z,99679.12
2019-06-07T18:02:42.388Z,99685.62
2019-06-07T18:05:13.082Z,99689.33
2019-06-07T18:07:43.878Z,99683.65
2019-06-07T18:10:12.794Z,99676.76
2019-06-07T18:12:41.527Z,99676.76
2019-06-07T18:15:13.467Z,99690.16
2019-06-07T18:17:46.438Z,99694.42
2019-06-07T18:20:15.765Z,99697.36
2019-06-07T18:22:45.074Z,99697.36
2019-06-07T18:25:14.337Z,99693.56
2019-06-07T18:27:43.061Z,99697.63
2019-06-07T18:30:12.258Z,99704.93
2019-06-07T18:32:41.016Z,99707.23
2019-06-07T18:35:09.822Z,99713.17
2019-06-07T18:37:38.617Z,99716.03
2019-06-07T18:40:07.935Z,99721.58
2019-06-07T18:42:36.654Z,99723.89
2019-06-07T18:45:08.293Z,99735.92
2019-06-07T18:47:37.015Z,99732.46
2019-06-07T18:50:09.129Z,99745.83
2019-06-07T18:52:39.586Z,99753.47
2019-06-07T18:55:09.964Z,99754.64
2019-06-07T18:57:38.698Z,99758.24
2019-06-07T19:00:11.830Z,99766.47
2019-06-07T19:02:40.969Z,99765.34
2019-06-07T19:05:10.293Z,99764.55
2019-06-07T19:07:39.187Z,99777.55
2019-06-07T19:10:09.229Z,99782.71
2019-06-07T19:12:38.025Z,99788.79
2019-06-07T19:15:08.899Z,99786.49
2019-06-07T19:17:37.627Z,99789.13
2019-06-07T19:20:07.754Z,99782.98
2019-06-07T19:22:36.631Z,99795.94
2019-06-07T19:25:08.865Z,99792.06
2019-06-07T19:27:37.588Z,99791.22
2019-06-07T19:30:08.138Z,99802.39
2019-06-07T19:32:36.865Z,99801.13
2019-06-07T19:35:07.382Z,99801.25
2019-06-07T19:37:36.166Z,99793.72
2019-06-07T19:40:06.690Z,99797.27
2019-06-07T19:42:35.433Z,99803.48
2019-06-07T19:45:28.797Z,99794.82
2019-06-07T19:47:37.776Z,99798.37
2019-06-07T19:50:07.688Z,99791.23
2019-06-07T19:52:36.743Z,99801.22
2019-06-07T19:55:09.892Z,99805.13
2019-06-07T19:57:38.855Z,99805.25
2019-06-07T20:00:13.812Z,99800.62
2019-06-07T20:02:40.287Z,99799.94
2019-06-07T20:05:11.918Z,99799.38
2019-06-07T20:07:41.180Z,99803.22
2019-06-07T20:10:10.509Z,99811.09
2019-06-07T20:12:39.232Z,99814.39
2019-06-07T20:15:27.396Z,99814.98
2019-06-07T20:17:40.596Z,99818.08
2019-06-07T20:20:11.214Z,99819.69
2019-06-07T20:22:40.055Z,99821.08
2019-06-07T20:25:09.354Z,99821.72
2019-06-07T20:27:38.278Z,99827.71
2019-06-07T20:30:09.134Z,99829.64
2019-06-07T20:32:37.858Z,99824.98
2019-06-07T20:35:08.216Z,99834.00
2019-06-07T20:37:37.368Z,99831.53
2019-06-07T20:40:22.922Z,99828.42
2019-06-07T20:42:39.225Z,99828.83
2019-06-07T20:45:09.001Z,99826.77
2019-06-07T20:47:37.687Z,99836.03
2019-06-07T20:50:08.844Z,99831.27
2019-06-07T20:52:38.098Z,99831.53
2019-06-07T20:55:09.472Z,99829.42
2019-06-07T20:57:38.249Z,99830.56
2019-06-07T21:00:14.634Z,99831.67
2019-06-07T21:02:38.278Z,99832.86
2019-06-07T21:05:07.693Z,99838.58
2019-06-07T21:07:37.211Z,99841.69
2019-06-07T21:10:10.684Z,99845.09
2019-06-07T21:12:39.716Z,99848.92
2019-06-07T21:15:12.817Z,99848.67
2019-06-07T21:17:39.753Z,99850.22
2019-06-07T21:20:13.759Z,99849.44
2019-06-07T21:22:40.465Z,99849.81
2019-06-07T21:25:09.852Z,99839.09
2019-06-07T21:27:39.980Z,99846.30
2019-06-07T21:30:12.358Z,99844.23
2019-06-07T21:32:41.210Z,99844.01
2019-06-07T21:35:10.344Z,99848.81
2019-06-07T21:37:39.533Z,99852.77
2019-06-07T21:40:10.188Z,99852.36
2019-06-07T21:42:39.144Z,99857.53
2019-06-07T21:45:09.605Z,99856.20
2019-06-07T21:47:38.734Z,99852.14
2019-06-07T21:50:10.589Z,99850.55
2019-06-07T21:52:39.802Z,99847.77
2019-06-07T21:55:09.268Z,99857.31
2019-06-07T21:57:38.561Z,99862.36
2019-06-07T22:00:13.398Z,99858.58
2019-06-07T22:02:42.227Z,99860.42
2019-06-07T22:05:11.742Z,99864.05
2019-06-07T22:07:40.822Z,99860.01
2019-06-07T22:10:10.166Z,99864.08
2019-06-07T22:12:38.946Z,99866.12
2019-06-07T22:15:29.156Z,99865.70
2019-06-07T22:17:41.247Z,99860.39
2019-06-07T22:20:10.983Z,99859.06
2019-06-07T22:22:39.768Z,99867.25
2019-06-07T22:25:09.320Z,99869.13
2019-06-07T22:27:38.279Z,99865.70
2019-06-07T22:30:08.454Z,99872.14
2019-06-07T22:32:37.569Z,99869.27
2019-06-07T22:35:07.298Z,99863.13
2019-06-07T22:37:36.163Z,99869.53
2019-06-07T22:40:08.331Z,99868.77
2019-06-07T22:42:37.703Z,99867.52
2019-06-07T22:45:08.106Z,99871.87
2019-06-07T22:47:36.944Z,99875.27
2019-06-07T22:50:08.715Z,99872.47
2019-06-07T22:52:37.709Z,99867.11
2019-06-07T22:55:08.147Z,99869.63
2019-06-07T22:57:54.636Z,99870.67
2019-06-07T23:00:24.063Z,99867.64
2019-06-07T23:02:52.791Z,99869.79
2019-06-07T23:05:21.584Z,99872.09
2019-06-07T23:07:50.324Z,99868.74
2019-06-07T23:10:19.641Z,99871.98
2019-06-07T23:12:48.563Z,99878.55
2019-06-07T23:15:18.231Z,99875.26
2019-06-07T23:17:48.110Z,99875.26
2019-06-07T23:20:18.011Z,99868.42
2019-06-07T23:22:46.897Z,99859.42
2019-06-07T23:25:20.152Z,99867.16
2019-06-07T23:27:46.246Z,99865.84
2019-06-07T23:30:16.671Z,99859.20
2019-06-07T23:32:45.479Z,99857.09
2019-06-07T23:35:14.915Z,99849.78
2019-06-07T23:37:43.696Z,99845.02
2019-06-07T23:40:13.157Z,99848.17
2019-06-07T23:42:42.080Z,99849.76
2019-06-07T23:45:12.020Z,99845.27
2019-06-07T23:47:41.447Z,99848.41
2019-06-07T23:50:11.480Z,99854.26
2019-06-07T23:52:40.338Z,99853.70
2019-06-07T23:55:09.657Z,99850.77
2019-06-07T23:57:38.533Z,99855.87
